createdAt,value
2019-01-15T00:02:24.756Z,13.20
2019-01-15T00:05:05.118Z,5.20
2019-01-15T00:07:45.068Z,9.68
2019-01-15T00:10:25.320Z,5.80
2019-01-15T00:13:05.150Z,6.85
2019-01-15T00:15:45.336Z,9.25
2019-01-15T00:18:25.568Z,9.40
2019-01-15T00:21:05.310Z,4.95
2019-01-15T00:23:45.988Z,6.53
2019-01-15T00:26:25.480Z,8.05
2019-01-15T00:29:06.864Z,5.00
2019-01-15T00:31:46.975Z,7.42
2019-01-15T00:34:27.452Z,7.45
2019-01-15T00:37:07.698Z,5.45
2019-01-15T00:39:47.616Z,5.60
2019-01-15T00:42:27.597Z,11.75
2019-01-15T00:45:08.468Z,4.90
2019-01-15T00:47:48.395Z,7.65
2019-01-15T00:50:29.036Z,7.78
2019-01-15T00:53:08.674Z,7.95
2019-01-15T00:55:48.766Z,6.70
2019-01-15T00:58:28.756Z,10.50
2019-01-15T01:01:09.094Z,7.67
2019-01-15T01:03:49.149Z,4.90
2019-01-15T01:06:28.995Z,5.10
2019-01-15T01:09:09.611Z,5.83
2019-01-15T01:11:50.064Z,5.42
2019-01-15T01:14:30.410Z,7.90
2019-01-15T01:17:10.552Z,7.85
2019-01-15T01:19:50.436Z,4.03
2019-01-15T01:22:30.740Z,5.60
2019-01-15T01:25:10.687Z,10.30
2019-01-15T01:27:50.685Z,6.80
2019-01-15T01:30:31.004Z,6.95
2019-01-15T01:33:10.872Z,11.83
2019-01-15T01:35:51.036Z,6.33
2019-01-15T01:38:31.126Z,9.38
2019-01-15T01:41:11.068Z,7.08
2019-01-15T01:43:51.141Z,4.97
2019-01-15T01:46:31.457Z,10.93
2019-01-15T01:49:11.531Z,4.50
2019-01-15T01:51:51.704Z,4.28
2019-01-15T01:54:31.524Z,3.27
2019-01-15T01:57:11.793Z,9.28
2019-01-15T01:59:52.052Z,3.60
2019-01-15T02:02:32.852Z,6.30
2019-01-15T02:05:13.082Z,6.58
2019-01-15T02:07:53.160Z,6.25
2019-01-15T02:10:33.008Z,6.30
2019-01-15T02:13:13.040Z,6.12
2019-01-15T02:15:53.268Z,9.00
2019-01-15T02:18:33.134Z,5.67
2019-01-15T02:21:13.104Z,4.53
2019-01-15T02:23:53.691Z,8.23
2019-01-15T02:26:34.748Z,3.47
2019-01-15T02:29:14.993Z,5.22
2019-01-15T02:31:55.033Z,9.30
2019-01-15T02:34:35.049Z,3.42
2019-01-15T02:37:15.534Z,5.03
2019-01-15T02:39:55.487Z,7.22
2019-01-15T02:42:35.692Z,6.65
2019-01-15T02:45:16.797Z,8.60
2019-01-15T02:47:56.514Z,4.75
2019-01-15T02:50:36.805Z,6.83
2019-01-15T02:53:16.940Z,4.15
2019-01-15T02:55:58.451Z,9.40
2019-01-15T02:58:38.982Z,2.60
2019-01-15T03:01:18.688Z,4.80
2019-01-15T03:03:58.975Z,4.78
2019-01-15T03:06:40.284Z,6.20
2019-01-15T03:09:20.448Z,3.05
2019-01-15T03:12:00.204Z,3.20
2019-01-15T03:14:40.225Z,4.45
2019-01-15T03:17:20.676Z,6.72
2019-01-15T03:20:00.377Z,4.62
2019-01-15T03:22:40.908Z,4.75
2019-01-15T03:25:20.796Z,2.85
2019-01-15T03:28:00.667Z,3.12
2019-01-15T03:30:40.831Z,3.52
2019-01-15T03:33:21.024Z,5.85
2019-01-15T03:36:00.990Z,8.40
2019-01-15T03:38:41.146Z,4.05
2019-01-15T03:41:21.108Z,3.95
2019-01-15T03:44:01.321Z,6.20
2019-01-15T03:46:41.554Z,2.92
2019-01-15T03:49:21.781Z,3.10
2019-01-15T03:52:02.615Z,4.80
2019-01-15T03:54:42.563Z,5.22
2019-01-15T03:57:22.749Z,3.15
2019-01-15T04:00:02.934Z,6.17
2019-01-15T04:02:43.138Z,5.85
2019-01-15T04:05:22.876Z,4.22
2019-01-15T04:08:02.768Z,4.10
2019-01-15T04:10:43.285Z,4.33
2019-01-15T04:13:23.490Z,3.45
2019-01-15T04:16:03.860Z,4.53
2019-01-15T04:18:43.463Z,13.75
2019-01-15T04:21:24.016Z,3.87
2019-01-15T04:24:03.794Z,6.45
2019-01-15T04:26:43.770Z,4.53
2019-01-15T04:29:23.777Z,9.03
2019-01-15T04:32:03.562Z,5.58
2019-01-15T04:34:43.604Z,10.30
2019-01-15T04:37:23.798Z,8.05
2019-01-15T04:40:03.717Z,6.70
2019-01-15T04:42:43.779Z,6.93
2019-01-15T04:45:23.761Z,5.67
2019-01-15T04:48:03.851Z,7.00
2019-01-15T04:50:44.297Z,5.70
2019-01-15T04:53:24.098Z,12.05
2019-01-15T04:56:04.022Z,11.53
2019-01-15T04:58:44.022Z,5.55
2019-01-15T05:01:24.072Z,9.33
2019-01-15T05:04:04.565Z,11.03
2019-01-15T05:06:44.254Z,8.95
2019-01-15T05:09:24.413Z,7.83
2019-01-15T05:12:04.951Z,7.65
2019-01-15T05:14:44.934Z,7.25
2019-01-15T05:17:25.013Z,16.97
2019-01-15T05:20:05.894Z,8.10
2019-01-15T05:22:45.714Z,18.15
2019-01-15T05:25:25.527Z,15.95
2019-01-15T05:28:05.621Z,12.37
2019-01-15T05:30:45.384Z,6.35
2019-01-15T05:33:25.504Z,6.83
2019-01-15T05:36:05.608Z,9.10
2019-01-15T05:38:45.499Z,10.35
2019-01-15T05:41:25.496Z,8.88
2019-01-15T05:44:05.950Z,11.12
2019-01-15T05:46:45.873Z,7.55
2019-01-15T05:49:25.964Z,8.68
2019-01-15T05:52:06.384Z,7.05
2019-01-15T05:54:46.385Z,11.75
2019-01-15T05:57:26.079Z,16.70
2019-01-15T06:00:06.225Z,15.43
2019-01-15T06:02:46.351Z,10.25
2019-01-15T06:05:26.624Z,9.45
2019-01-15T06:08:06.462Z,12.55
2019-01-15T06:10:46.444Z,9.83
2019-01-15T06:13:26.696Z,11.90
2019-01-15T06:16:06.524Z,12.90
2019-01-15T06:18:47.010Z,14.03
2019-01-15T06:21:26.899Z,9.10
2019-01-15T06:24:06.964Z,7.97
2019-01-15T06:26:47.273Z,8.45
2019-01-15T06:29:27.669Z,9.78
2019-01-15T06:32:07.614Z,9.15
2019-01-15T06:34:47.733Z,13.88
2019-01-15T06:37:27.987Z,8.00
2019-01-15T06:40:08.131Z,15.70
2019-01-15T06:42:48.578Z,7.70
2019-01-15T06:45:28.869Z,9.43
2019-01-15T06:48:08.534Z,5.42
2019-01-15T06:50:48.590Z,10.63
2019-01-15T06:53:28.725Z,8.35
2019-01-15T06:56:08.730Z,7.50
2019-01-15T06:58:48.748Z,7.47
2019-01-15T07:01:28.997Z,8.23
2019-01-15T07:04:09.021Z,6.33
2019-01-15T07:06:49.211Z,7.35
2019-01-15T07:09:29.520Z,12.37
2019-01-15T07:12:09.604Z,9.83
2019-01-15T07:14:49.782Z,9.18
2019-01-15T07:17:29.938Z,8.40
2019-01-15T07:20:14.007Z,8.48
2019-01-15T07:22:53.976Z,7.85
2019-01-15T07:25:33.896Z,5.83
2019-01-15T07:28:14.143Z,8.78
2019-01-15T07:30:54.443Z,11.90
2019-01-15T07:33:34.592Z,10.32
2019-01-15T07:36:14.660Z,6.22
2019-01-15T07:38:54.524Z,15.88
2019-01-15T07:41:34.582Z,9.40
2019-01-15T07:44:15.031Z,6.40
2019-01-15T07:46:56.248Z,6.47
2019-01-15T07:49:36.040Z,8.13
2019-01-15T07:52:16.072Z,10.35
2019-01-15T07:54:56.106Z,14.78
2019-01-15T07:57:36.465Z,8.58
2019-01-15T08:00:16.506Z,8.53
2019-01-15T08:02:56.462Z,8.28
2019-01-15T08:05:37.412Z,8.13
2019-01-15T08:08:17.576Z,11.90
2019-01-15T08:10:57.845Z,9.28
2019-01-15T08:13:37.887Z,8.45
2019-01-15T08:16:18.284Z,6.25
2019-01-15T08:18:58.328Z,8.95
2019-01-15T08:21:38.680Z,14.43
2019-01-15T08:24:18.816Z,10.28
2019-01-15T08:26:58.704Z,11.63
2019-01-15T08:29:39.120Z,8.33
2019-01-15T08:32:19.192Z,9.60
2019-01-15T08:34:59.382Z,9.55
2019-01-15T08:37:39.960Z,9.60
2019-01-15T08:40:20.269Z,8.33
2019-01-15T08:43:00.259Z,9.93
2019-01-15T08:45:40.312Z,9.48
2019-01-15T08:48:22.899Z,12.68
2019-01-15T08:51:03.504Z,11.68
2019-01-15T08:53:44.320Z,7.22
2019-01-15T08:56:24.181Z,7.60
2019-01-15T09:02:02.479Z,10.35
2019-01-15T09:04:42.506Z,13.70
2019-01-15T09:07:23.055Z,10.50
2019-01-15T09:10:02.984Z,9.50
2019-01-15T09:12:43.047Z,9.90
2019-01-15T09:15:23.219Z,6.85
2019-01-15T09:18:03.052Z,6.45
2019-01-15T09:20:43.118Z,10.72
2019-01-15T09:23:23.201Z,8.70
2019-01-15T09:26:03.257Z,9.63
2019-01-15T09:28:43.086Z,10.32
2019-01-15T09:31:23.234Z,21.65
2019-01-15T09:34:03.329Z,12.90
2019-01-15T09:36:43.408Z,12.37
2019-01-15T09:39:23.627Z,8.53
2019-01-15T09:42:03.663Z,10.23
2019-01-15T09:44:44.278Z,12.18
2019-01-15T09:47:24.041Z,8.43
2019-01-15T09:50:04.069Z,8.48
2019-01-15T09:52:44.333Z,10.90
2019-01-15T09:55:24.462Z,8.25
2019-01-15T09:58:04.584Z,10.60
2019-01-15T10:00:44.646Z,7.22
2019-01-15T10:03:24.589Z,10.05
2019-01-15T10:06:04.765Z,11.20
2019-01-15T10:08:45.096Z,9.45
2019-01-15T10:11:25.502Z,10.50
2019-01-15T10:14:05.428Z,10.70
2019-01-15T10:16:45.440Z,11.55
2019-01-15T10:19:25.368Z,6.80
2019-01-15T10:22:05.715Z,8.10
2019-01-15T10:24:45.805Z,6.57
2019-01-15T10:27:25.675Z,7.00
2019-01-15T10:30:06.096Z,8.05
2019-01-15T10:32:46.563Z,12.33
2019-01-15T10:35:26.588Z,8.85
2019-01-15T10:38:07.057Z,13.18
2019-01-15T10:40:47.094Z,8.40
2019-01-15T10:43:26.726Z,5.80
2019-01-15T10:46:06.853Z,6.00
2019-01-15T10:48:47.332Z,7.87
2019-01-15T10:51:27.204Z,9.90
2019-01-15T10:54:08.346Z,19.00
2019-01-15T10:56:48.510Z,15.33
2019-01-15T10:59:28.721Z,11.00
2019-01-15T11:02:08.647Z,11.63
2019-01-15T11:04:49.436Z,11.47
2019-01-15T11:07:29.706Z,9.20
2019-01-15T11:10:09.536Z,13.13
2019-01-15T11:12:49.364Z,11.43
2019-01-15T11:15:29.680Z,13.13
2019-01-15T11:18:09.858Z,12.80
2019-01-15T11:20:49.902Z,10.30
2019-01-15T11:23:30.926Z,11.20
2019-01-15T11:26:10.899Z,12.05
2019-01-15T11:28:51.200Z,14.07
2019-01-15T11:31:31.788Z,14.50
2019-01-15T11:34:11.461Z,24.07
2019-01-15T11:36:51.886Z,16.25
2019-01-15T11:39:31.815Z,17.30
2019-01-15T11:42:11.964Z,8.50
2019-01-15T11:44:52.400Z,15.67
2019-01-15T11:47:32.204Z,14.40
2019-01-15T11:50:12.057Z,13.90
2019-01-15T11:52:52.501Z,7.23
2019-01-15T11:55:32.355Z,10.07
2019-01-15T11:58:12.880Z,9.85
2019-01-15T12:04:20.151Z,13.33
2019-01-15T12:07:19.436Z,10.20
2019-01-15T12:10:19.654Z,13.50
2019-01-15T12:13:19.485Z,9.93
2019-01-15T12:16:18.965Z,11.20
2019-01-15T12:19:09.369Z,8.78
2019-01-15T12:22:08.930Z,20.93
2019-01-15T12:25:08.284Z,12.07
2019-01-15T12:28:07.551Z,10.90
2019-01-15T12:31:14.058Z,8.57
2019-01-15T12:34:13.869Z,14.23
2019-01-15T12:37:13.012Z,14.80
2019-01-15T12:40:12.436Z,9.63
2019-01-15T12:43:19.275Z,10.13
2019-01-15T12:46:18.470Z,12.27
2019-01-15T12:49:17.586Z,9.80
2019-01-15T12:52:16.912Z,6.60
2019-01-15T12:55:16.236Z,15.13
2019-01-15T12:58:15.383Z,8.93
2019-01-15T13:01:22.036Z,10.30
2019-01-15T13:04:28.496Z,11.87
2019-01-15T13:07:34.092Z,11.27
2019-01-15T13:10:34.102Z,12.20
2019-01-15T13:13:33.411Z,9.77
2019-01-15T13:16:33.482Z,9.10
2019-01-15T13:19:33.621Z,13.30
2019-01-15T13:22:32.858Z,7.87
2019-01-15T13:25:32.056Z,10.17
2019-01-15T13:28:31.258Z,13.07
2019-01-15T13:31:19.234Z,8.50
2019-01-15T13:34:18.423Z,12.80
2019-01-15T13:37:06.614Z,11.10
2019-01-15T13:40:13.190Z,10.23
2019-01-15T13:43:12.994Z,27.43
2019-01-15T13:46:14.208Z,9.63
2019-01-15T13:49:07.565Z,9.40
2019-01-15T13:52:10.374Z,11.03
2019-01-15T13:55:09.565Z,17.50
2019-01-15T13:58:08.765Z,12.77
2019-01-15T14:01:08.197Z,17.00
2019-01-15T14:04:00.382Z,12.20
2019-01-15T14:06:53.785Z,12.13
2019-01-15T14:09:53.502Z,21.70
2019-01-15T14:12:52.851Z,14.10
2019-01-15T14:15:58.324Z,11.00
2019-01-15T14:18:49.393Z,18.53
2019-01-15T14:21:48.939Z,12.90
2019-01-15T14:24:58.319Z,12.20
2019-01-15T14:28:39.460Z,13.13
2019-01-15T14:31:45.083Z,18.10
2019-01-15T14:34:44.417Z,13.07
2019-01-15T14:37:44.799Z,10.03
2019-01-15T14:40:44.799Z,13.53
2019-01-15T14:43:44.827Z,16.93
2019-01-15T14:46:50.515Z,19.80
2019-01-15T14:49:52.207Z,12.70
2019-01-15T14:52:51.617Z,13.47
2019-01-15T14:55:54.109Z,13.90
2019-01-15T14:58:54.182Z,11.17
2019-01-15T15:01:53.533Z,15.50
2019-01-15T15:05:00.642Z,19.63
2019-01-15T15:07:51.445Z,13.13
2019-01-15T15:10:51.003Z,19.33
2019-01-15T15:13:51.702Z,21.17
2019-01-15T15:16:46.635Z,21.03
2019-01-15T15:19:46.650Z,15.63
2019-01-15T15:22:45.885Z,14.67
2019-01-15T15:25:45.129Z,11.73
2019-01-15T15:32:35.532Z,18.30
2019-01-15T15:35:35.323Z,11.37
2019-01-15T15:38:34.783Z,13.43
2019-01-15T15:41:40.360Z,16.77
2019-01-15T15:44:39.560Z,11.37
2019-01-15T15:47:39.480Z,13.60
2019-01-15T15:50:38.763Z,13.23
2019-01-15T15:53:37.957Z,11.80
2019-01-15T15:56:38.334Z,10.53
2019-01-15T15:59:38.261Z,14.37
2019-01-15T16:02:43.591Z,11.07
2019-01-15T16:05:37.444Z,18.67
2019-01-15T16:08:36.773Z,13.27
2019-01-15T16:11:35.956Z,15.13
2019-01-15T16:14:23.992Z,12.70
2019-01-15T16:17:17.888Z,7.37
2019-01-15T16:20:17.910Z,8.10
2019-01-15T16:23:18.207Z,9.97
2019-01-15T16:26:09.008Z,8.10
2019-01-15T16:29:14.363Z,9.43
2019-01-15T16:32:04.925Z,10.20
2019-01-15T16:35:04.194Z,10.83
2019-01-15T16:37:56.170Z,16.47
2019-01-15T16:40:52.950Z,14.43
2019-01-15T16:43:55.252Z,17.27
2019-01-15T16:46:54.658Z,11.20
2019-01-15T16:49:46.356Z,12.33
2019-01-15T16:52:42.184Z,11.87
2019-01-15T16:55:41.864Z,10.87
2019-01-15T16:58:41.186Z,13.30
2019-01-15T17:01:40.338Z,12.73
2019-01-15T17:04:39.558Z,13.03
2019-01-15T17:07:35.318Z,12.07
2019-01-15T17:10:26.440Z,16.70
2019-01-15T17:13:47.986Z,14.33
2019-01-15T17:16:47.811Z,19.30
2019-01-15T17:19:48.025Z,10.23
2019-01-15T17:22:42.552Z,11.27
2019-01-15T17:25:41.987Z,11.50
2019-01-15T17:28:36.088Z,10.33
2019-01-15T17:31:38.211Z,16.57
2019-01-15T17:34:37.469Z,10.93
2019-01-15T17:37:39.990Z,12.53
2019-01-15T17:40:42.092Z,23.53
2019-01-15T17:43:41.103Z,11.47
2019-01-15T17:46:28.477Z,10.93
2019-01-15T17:49:30.459Z,13.23
2019-01-15T17:52:22.049Z,11.93
2019-01-15T17:55:22.348Z,11.70
2019-01-15T17:58:22.473Z,12.07
2019-01-15T18:01:28.185Z,13.53
2019-01-15T18:04:27.328Z,12.53
2019-01-15T18:07:27.320Z,13.97
2019-01-15T18:10:26.346Z,12.07
2019-01-15T18:13:25.812Z,12.70
2019-01-15T18:16:17.150Z,15.10
2019-01-15T18:19:16.699Z,14.20
2019-01-15T18:22:16.048Z,12.57
2019-01-15T18:25:15.277Z,9.27
2019-01-15T18:28:14.545Z,31.67
2019-01-15T18:31:16.619Z,21.57
2019-01-15T18:34:15.134Z,27.50
2019-01-15T18:37:13.554Z,16.70
2019-01-15T18:40:19.605Z,21.20
2019-01-15T18:43:14.728Z,15.13
2019-01-15T18:46:14.662Z,10.77
2019-01-15T18:49:13.943Z,9.37
2019-01-15T18:52:13.059Z,10.10
2019-01-15T18:55:15.109Z,15.23
2019-01-15T18:58:37.013Z,8.70
2019-01-15T19:01:34.768Z,10.67
2019-01-15T19:04:34.787Z,19.30
2019-01-15T19:07:27.233Z,5.80
2019-01-15T19:10:26.482Z,8.33
2019-01-15T19:13:25.963Z,4.63
2019-01-15T19:16:25.774Z,10.00
2019-01-15T19:19:20.870Z,11.67
2019-01-15T19:22:20.268Z,10.30
2019-01-15T19:25:13.685Z,10.93
2019-01-15T19:27:59.163Z,3.90
2019-01-15T19:30:56.352Z,4.20
2019-01-15T19:33:56.120Z,3.53
2019-01-15T19:36:52.088Z,5.60
2019-01-15T19:39:51.842Z,5.30
2019-01-15T19:42:51.014Z,6.33
2019-01-15T19:45:45.747Z,4.90
2019-01-15T19:48:40.753Z,10.90
2019-01-15T19:51:40.702Z,11.93
2019-01-15T19:54:40.012Z,9.37
2019-01-15T19:57:40.150Z,10.10
2019-01-15T20:00:36.094Z,9.40
2019-01-15T20:03:36.012Z,8.50
2019-01-15T20:06:25.528Z,11.33
2019-01-15T20:09:47.252Z,6.83
2019-01-15T20:12:44.828Z,14.90
2019-01-15T20:15:51.275Z,13.50
2019-01-15T20:18:50.809Z,13.17
2019-01-15T20:21:50.727Z,9.93
2019-01-15T20:24:49.849Z,6.70
2019-01-15T20:27:52.166Z,8.30
2019-01-15T20:30:38.421Z,10.57
2019-01-15T20:33:31.526Z,15.53
2019-01-15T20:36:31.572Z,19.70
2019-01-15T20:39:23.556Z,12.57
2019-01-15T20:42:22.881Z,9.80
2019-01-15T20:45:24.976Z,11.35
2019-01-15T20:48:24.346Z,9.50
2019-01-15T20:51:26.518Z,13.00
2019-01-15T20:54:26.626Z,9.37
2019-01-15T20:57:26.841Z,7.27
2019-01-15T21:00:32.827Z,9.15
2019-01-15T21:03:32.108Z,9.07
2019-01-15T21:06:31.561Z,8.43
2019-01-15T21:09:31.528Z,12.70
2019-01-15T21:12:30.838Z,14.80
2019-01-15T21:15:29.951Z,10.20
2019-01-15T21:18:29.208Z,11.83
2019-01-15T21:21:28.266Z,10.00
2019-01-15T21:24:28.386Z,11.37
2019-01-15T21:27:23.972Z,10.90
2019-01-15T21:30:23.236Z,9.00
2019-01-15T21:33:22.908Z,12.30
2019-01-15T21:36:25.724Z,10.63
2019-01-15T21:39:25.172Z,14.07
2019-01-15T21:42:24.294Z,13.13
2019-01-15T21:45:29.981Z,15.40
2019-01-15T21:48:29.188Z,15.30
2019-01-15T21:51:28.514Z,22.07
2019-01-15T21:54:27.653Z,43.57
2019-01-15T21:57:21.124Z,49.70
2019-01-15T22:00:21.217Z,39.17
2019-01-15T22:03:10.902Z,15.87
2019-01-15T22:06:13.181Z,16.50
2019-01-15T22:09:15.833Z,10.37
2019-01-15T22:12:15.781Z,9.50
2019-01-15T22:15:15.360Z,7.00
2019-01-15T22:18:15.198Z,10.00
2019-01-15T22:21:14.394Z,12.87
2019-01-15T22:24:13.414Z,9.67
2019-01-15T22:27:12.609Z,11.03
2019-01-15T22:30:12.040Z,6.80
2019-01-15T22:33:11.343Z,8.47
2019-01-15T22:36:10.637Z,11.67
2019-01-15T22:42:54.278Z,8.33
2019-01-15T22:45:53.788Z,8.53
2019-01-15T22:48:56.553Z,8.33
2019-01-15T22:51:56.079Z,8.63
2019-01-15T22:54:56.230Z,8.53
2019-01-15T22:57:55.619Z,13.50
2019-01-15T23:01:01.923Z,7.43
2019-01-15T23:04:26.029Z,11.03
2019-01-15T23:07:26.039Z,16.80
2019-01-15T23:10:25.410Z,8.77
2019-01-15T23:13:31.576Z,7.63
2019-01-15T23:16:19.709Z,9.50
2019-01-15T23:19:47.062Z,8.57
2019-01-15T23:22:48.913Z,9.17
2019-01-15T23:25:48.117Z,16.43
2019-01-15T23:28:48.150Z,8.07
2019-01-15T23:31:34.746Z,11.57
2019-01-15T23:34:22.959Z,7.80
2019-01-15T23:37:16.548Z,10.40
2019-01-15T23:40:07.836Z,10.53
2019-01-15T23:42:53.301Z,10.15
2019-01-15T23:45:59.779Z,12.30
2019-01-15T23:48:59.895Z,13.18
2019-01-15T23:51:59.917Z,11.18
2019-01-15T23:55:00.333Z,9.25
2019-01-15T23:58:06.776Z,5.65
